sensor_id;sensor_type;location;lat;lon;timestamp;pressure;altitude;pressure_sealevel;temperature;humidity
51099;BME280;37146;48.210;16.234;2023-02-19T00:01:17;98891.72;;;11.61;74.32
51099;BME280;37146;48.210;16.234;2023-02-19T00:03:46;98899.09;;;11.57;74.52
51099;BME280;37146;48.210;16.234;2023-02-19T00:06:12;98897.41;;;11.55;75.11
51099;BME280;37146;48.210;16.234;2023-02-19T00:08:37;98888.81;;;11.50;75.13
51099;BME280;37146;48.210;16.234;2023-02-19T00:11:05;98893.91;;;11.54;74.82
51099;BME280;37146;48.210;16.234;2023-02-19T00:13:30;98898.31;;;11.55;75.22
51099;BME280;37146;48.210;16.234;2023-02-19T00:15:56;98905.72;;;11.50;75.33
51099;BME280;37146;48.210;16.234;2023-02-19T00:18:22;98904.00;;;11.49;75.36
51099;BME280;37146;48.210;16.234;2023-02-19T00:20:47;98898.47;;;11.52;75.17
51099;BME280;37146;48.210;16.234;2023-02-19T00:23:12;98896.41;;;11.57;75.21
51099;BME280;37146;48.210;16.234;2023-02-19T00:25:37;98905.72;;;11.50;75.37
51099;BME280;37146;48.210;16.234;2023-02-19T00:28:03;98914.72;;;11.49;75.63
51099;BME280;37146;48.210;16.234;2023-02-19T00:30:28;98907.97;;;11.42;76.40
51099;BME280;37146;48.210;16.234;2023-02-19T00:32:53;98920.59;;;11.40;76.23
51099;BME280;37146;48.210;16.234;2023-02-19T00:35:19;98923.44;;;11.37;76.36
51099;BME280;37146;48.210;16.234;2023-02-19T00:37:45;98935.88;;;11.38;76.73
51099;BME280;37146;48.210;16.234;2023-02-19T00:40:10;98933.56;;;11.32;77.04
51099;BME280;37146;48.210;16.234;2023-02-19T00:42:35;98930.47;;;11.39;77.01
51099;BME280;37146;48.210;16.234;2023-02-19T00:45:00;98928.53;;;11.41;76.99
51099;BME280;37146;48.210;16.234;2023-02-19T00:47:25;98927.16;;;11.34;77.69
51099;BME280;37146;48.210;16.234;2023-02-19T00:49:51;98927.06;;;11.36;77.38
51099;BME280;37146;48.210;16.234;2023-02-19T00:52:16;98935.44;;;11.29;78.16
51099;BME280;37146;48.210;16.234;2023-02-19T00:54:41;98928.19;;;11.32;78.52
51099;BME280;37146;48.210;16.234;2023-02-19T00:57:06;98927.31;;;11.31;78.99
51099;BME280;37146;48.210;16.234;2023-02-19T00:59:31;98932.78;;;11.29;79.05
51099;BME280;37146;48.210;16.234;2023-02-19T01:01:57;98936.91;;;11.19;79.97
51099;BME280;37146;48.210;16.234;2023-02-19T01:04:22;98936.50;;;11.27;79.80
51099;BME280;37146;48.210;16.234;2023-02-19T01:06:47;98942.00;;;11.24;80.03
51099;BME280;37146;48.210;16.234;2023-02-19T01:09:13;98938.03;;;11.15;80.65
51099;BME280;37146;48.210;16.234;2023-02-19T01:11:38;98940.44;;;11.20;80.54
51099;BME280;37146;48.210;16.234;2023-02-19T01:14:03;98931.28;;;11.08;81.75
51099;BME280;37146;48.210;16.234;2023-02-19T01:16:28;98933.63;;;11.14;81.09
51099;BME280;37146;48.210;16.234;2023-02-19T01:18:55;98928.44;;;11.11;81.94
51099;BME280;37146;48.210;16.234;2023-02-19T01:21:21;98922.41;;;11.07;82.44
51099;BME280;37146;48.210;16.234;2023-02-19T01:23:50;98928.78;;;11.05;82.71
51099;BME280;37146;48.210;16.234;2023-02-19T01:26:19;98922.19;;;10.94;83.56
51099;BME280;37146;48.210;16.234;2023-02-19T01:28:45;98928.34;;;10.96;83.77
51099;BME280;37146;48.210;16.234;2023-02-19T01:31:14;98919.22;;;11.01;83.96
51099;BME280;37146;48.210;16.234;2023-02-19T01:33:42;98912.97;;;11.00;83.75
51099;BME280;37146;48.210;16.234;2023-02-19T01:36:09;98912.44;;;10.93;84.18
51099;BME280;37146;48.210;16.234;2023-02-19T01:38:35;98911.50;;;10.94;84.33
51099;BME280;37146;48.210;16.234;2023-02-19T01:41:01;98913.09;;;10.81;85.24
51099;BME280;37146;48.210;16.234;2023-02-19T01:43:27;98898.31;;;10.91;85.05
51099;BME280;37146;48.210;16.234;2023-02-19T01:45:52;98898.78;;;10.82;85.52
51099;BME280;37146;48.210;16.234;2023-02-19T01:48:19;98903.28;;;10.81;85.77
51099;BME280;37146;48.210;16.234;2023-02-19T01:50:46;98904.94;;;10.84;85.53
51099;BME280;37146;48.210;16.234;2023-02-19T01:53:13;98898.78;;;10.82;85.58
51099;BME280;37146;48.210;16.234;2023-02-19T01:55:41;98891.00;;;10.77;86.13
51099;BME280;37146;48.210;16.234;2023-02-19T01:58:08;98894.56;;;10.78;86.06
51099;BME280;37146;48.210;16.234;2023-02-19T02:00:34;98896.03;;;10.83;86.09
51099;BME280;37146;48.210;16.234;2023-02-19T02:03:00;98890.75;;;10.82;86.12
51099;BME280;37146;48.210;16.234;2023-02-19T02:05:31;98884.97;;;10.74;86.80
51099;BME280;37146;48.210;16.234;2023-02-19T02:07:59;98877.72;;;10.76;86.79
51099;BME280;37146;48.210;16.234;2023-02-19T02:10:44;98875.47;;;10.68;87.29
51099;BME280;37146;48.210;16.234;2023-02-19T02:13:10;98877.81;;;10.74;87.25
51099;BME280;37146;48.210;16.234;2023-02-19T02:15:57;98877.88;;;10.73;86.86
51099;BME280;37146;48.210;16.234;2023-02-19T02:18:27;98891.09;;;10.76;86.50
51099;BME280;37146;48.210;16.234;2023-02-19T02:21:10;98895.22;;;10.65;87.77
51099;BME280;37146;48.210;16.234;2023-02-19T02:23:51;98881.31;;;10.59;89.23
51099;BME280;37146;48.210;16.234;2023-02-19T02:29:44;98881.06;;;10.63;90.01
51099;BME280;37146;48.210;16.234;2023-02-19T02:32:02;98875.44;;;10.52;90.85
51099;BME280;37146;48.210;16.234;2023-02-19T02:34:32;98880.94;;;10.49;92.09
51099;BME280;37146;48.210;16.234;2023-02-19T02:36:59;98881.03;;;10.47;93.56
51099;BME280;37146;48.210;16.234;2023-02-19T02:39:25;98870.88;;;10.36;95.63
51099;BME280;37146;48.210;16.234;2023-02-19T02:41:56;98875.50;;;10.33;96.90
51099;BME280;37146;48.210;16.234;2023-02-19T02:44:40;98874.59;;;10.16;99.92
51099;BME280;37146;48.210;16.234;2023-02-19T02:47:06;98863.53;;;10.06;100.00
51099;BME280;37146;48.210;16.234;2023-02-19T02:49:54;98869.81;;;10.05;100.00
51099;BME280;37146;48.210;16.234;2023-02-19T02:52:30;98857.41;;;9.87;100.00
51099;BME280;37146;48.210;16.234;2023-02-19T02:55:14;98856.75;;;9.82;100.00
51099;BME280;37146;48.210;16.234;2023-02-19T02:57:39;98855.38;;;9.74;100.00
51099;BME280;37146;48.210;16.234;2023-02-19T03:00:05;98856.44;;;9.70;100.00
51099;BME280;37146;48.210;16.234;2023-02-19T03:02:30;98850.16;;;9.71;100.00
51099;BME280;37146;48.210;16.234;2023-02-19T03:05:01;98848.94;;;9.79;100.00
51099;BME280;37146;48.210;16.234;2023-02-19T03:08:03;98850.66;;;9.80;100.00
51099;BME280;37146;48.210;16.234;2023-02-19T03:12:57;98848.16;;;9.77;100.00
51099;BME280;37146;48.210;16.234;2023-02-19T03:15:46;98829.59;;;9.73;100.00
51099;BME280;37146;48.210;16.234;2023-02-19T03:18:33;98832.22;;;9.75;100.00
51099;BME280;37146;48.210;16.234;2023-02-19T03:21:18;98835.09;;;9.70;100.00
51099;BME280;37146;48.210;16.234;2023-02-19T03:23:45;98833.06;;;9.75;100.00
51099;BME280;37146;48.210;16.234;2023-02-19T03:26:30;98832.97;;;9.77;100.00
51099;BME280;37146;48.210;16.234;2023-02-19T03:28:57;98834.47;;;9.65;100.00
51099;BME280;37146;48.210;16.234;2023-02-19T03:31:40;98829.28;;;9.62;100.00
51099;BME280;37146;48.210;16.234;2023-02-19T03:34:08;98840.34;;;9.54;100.00
51099;BME280;37146;48.210;16.234;2023-02-19T03:36:35;98832.56;;;9.50;100.00
51099;BME280;37146;48.210;16.234;2023-02-19T03:39:06;98838.94;;;9.47;100.00
51099;BME280;37146;48.210;16.234;2023-02-19T03:49:43;98847.41;;;9.55;100.00
51099;BME280;37146;48.210;16.234;2023-02-19T03:54:42;98830.53;;;9.55;100.00
51099;BME280;37146;48.210;16.234;2023-02-19T03:59:47;98832.41;;;9.53;100.00
51099;BME280;37146;48.210;16.234;2023-02-19T04:02:18;98837.28;;;9.62;100.00
51099;BME280;37146;48.210;16.234;2023-02-19T04:04:53;98825.34;;;9.52;100.00
51099;BME280;37146;48.210;16.234;2023-02-19T04:07:20;98839.50;;;9.54;100.00
51099;BME280;37146;48.210;16.234;2023-02-19T04:09:47;98829.47;;;9.59;100.00
51099;BME280;37146;48.210;16.234;2023-02-19T04:12:13;98847.25;;;9.58;100.00
51099;BME280;37146;48.210;16.234;2023-02-19T04:17:05;98831.56;;;9.52;100.00
51099;BME280;37146;48.210;16.234;2023-02-19T04:19:32;98843.50;;;9.63;100.00
51099;BME280;37146;48.210;16.234;2023-02-19T04:21:59;98846.25;;;9.61;100.00
51099;BME280;37146;48.210;16.234;2023-02-19T04:24:27;98835.78;;;9.56;100.00
51099;BME280;37146;48.210;16.234;2023-02-19T04:26:53;98820.19;;;9.66;100.00
51099;BME280;37146;48.210;16.234;2023-02-19T04:29:19;98839.34;;;9.57;100.00
51099;BME280;37146;48.210;16.234;2023-02-19T04:31:45;98836.59;;;9.58;100.00
51099;BME280;37146;48.210;16.234;2023-02-19T04:34:10;98826.28;;;9.51;100.00
51099;BME280;37146;48.210;16.234;2023-02-19T04:36:35;98827.22;;;9.50;100.00
51099;BME280;37146;48.210;16.234;2023-02-19T04:39:00;98824.88;;;9.61;100.00
51099;BME280;37146;48.210;16.234;2023-02-19T04:41:26;98818.53;;;9.64;100.00
51099;BME280;37146;48.210;16.234;2023-02-19T04:43:51;98827.53;;;9.61;100.00
51099;BME280;37146;48.210;16.234;2023-02-19T04:46:16;98824.13;;;9.59;100.00
51099;BME280;37146;48.210;16.234;2023-02-19T04:48:41;98819.63;;;9.59;100.00
51099;BME280;37146;48.210;16.234;2023-02-19T04:51:07;98817.81;;;9.60;100.00
51099;BME280;37146;48.210;16.234;2023-02-19T04:53:32;98819.63;;;9.59;100.00
51099;BME280;37146;48.210;16.234;2023-02-19T04:56:04;98821.88;;;9.50;100.00
51099;BME280;37146;48.210;16.234;2023-02-19T04:58:29;98813.41;;;9.41;100.00
51099;BME280;37146;48.210;16.234;2023-02-19T05:00:55;98806.97;;;9.46;100.00
51099;BME280;37146;48.210;16.234;2023-02-19T05:03:20;98796.38;;;9.44;100.00
51099;BME280;37146;48.210;16.234;2023-02-19T05:05:45;98802.44;;;9.48;100.00
51099;BME280;37146;48.210;16.234;2023-02-19T05:08:10;98803.75;;;9.39;100.00
51099;BME280;37146;48.210;16.234;2023-02-19T05:10:35;98788.06;;;9.50;100.00
51099;BME280;37146;48.210;16.234;2023-02-19T05:13:01;98790.47;;;9.37;100.00
51099;BME280;37146;48.210;16.234;2023-02-19T05:15:26;98793.47;;;9.31;100.00
51099;BME280;37146;48.210;16.234;2023-02-19T05:17:51;98781.13;;;9.28;100.00
51099;BME280;37146;48.210;16.234;2023-02-19T05:20:16;98783.72;;;9.30;100.00
51099;BME280;37146;48.210;16.234;2023-02-19T05:22:42;98780.72;;;9.19;100.00
51099;BME280;37146;48.210;16.234;2023-02-19T05:25:07;98768.03;;;9.24;100.00
51099;BME280;37146;48.210;16.234;2023-02-19T05:27:32;98771.22;;;9.13;100.00
51099;BME280;37146;48.210;16.234;2023-02-19T05:29:57;98759.38;;;9.19;100.00
51099;BME280;37146;48.210;16.234;2023-02-19T05:32:23;98747.91;;;9.17;100.00
51099;BME280;37146;48.210;16.234;2023-02-19T05:34:49;98751.97;;;9.06;100.00
51099;BME280;37146;48.210;16.234;2023-02-19T05:37:14;98753.66;;;9.09;100.00
51099;BME280;37146;48.210;16.234;2023-02-19T05:39:40;98743.69;;;9.12;100.00
51099;BME280;37146;48.210;16.234;2023-02-19T05:42:05;98737.22;;;9.17;100.00
51099;BME280;37146;48.210;16.234;2023-02-19T05:44:30;98736.75;;;9.08;100.00
51099;BME280;37146;48.210;16.234;2023-02-19T05:46:55;98731.91;;;9.17;100.00
51099;BME280;37146;48.210;16.234;2023-02-19T05:49:21;98733.56;;;9.19;100.00
51099;BME280;37146;48.210;16.234;2023-02-19T05:51:49;98733.63;;;9.18;100.00
51099;BME280;37146;48.210;16.234;2023-02-19T05:54:14;98734.28;;;9.23;100.00
51099;BME280;37146;48.210;16.234;2023-02-19T05:56:39;98727.50;;;9.16;100.00
51099;BME280;37146;48.210;16.234;2023-02-19T05:59:15;98723.91;;;9.17;100.00
51099;BME280;37146;48.210;16.234;2023-02-19T06:01:41;98721.72;;;9.25;100.00
51099;BME280;37146;48.210;16.234;2023-02-19T06:04:07;98720.13;;;9.21;100.00
51099;BME280;37146;48.210;16.234;2023-02-19T06:06:32;98711.44;;;9.17;100.00
51099;BME280;37146;48.210;16.234;2023-02-19T06:08:58;98723.50;;;9.24;100.00
51099;BME280;37146;48.210;16.234;2023-02-19T06:11:23;98702.72;;;9.13;100.00
51099;BME280;37146;48.210;16.234;2023-02-19T06:13:48;98712.03;;;9.22;100.00
51099;BME280;37146;48.210;16.234;2023-02-19T06:16:14;98714.09;;;9.35;100.00
51099;BME280;37146;48.210;16.234;2023-02-19T06:18:42;98723.03;;;9.34;100.00
51099;BME280;37146;48.210;16.234;2023-02-19T06:21:08;98715.28;;;9.47;100.00
51099;BME280;37146;48.210;16.234;2023-02-19T06:23:34;98742.69;;;9.50;100.00
51099;BME280;37146;48.210;16.234;2023-02-19T06:28:30;98733.88;;;9.48;100.00
51099;BME280;37146;48.210;16.234;2023-02-19T06:30:57;98725.47;;;9.56;100.00
51099;BME280;37146;48.210;16.234;2023-02-19T06:33:22;98729.19;;;9.53;100.00
51099;BME280;37146;48.210;16.234;2023-02-19T06:35:47;98729.63;;;9.62;100.00
51099;BME280;37146;48.210;16.234;2023-02-19T06:38:12;98736.84;;;9.59;100.00
51099;BME280;37146;48.210;16.234;2023-02-19T06:40:37;98742.00;;;9.80;100.00
51099;BME280;37146;48.210;16.234;2023-02-19T06:43:03;98738.28;;;9.83;100.00
51099;BME280;37146;48.210;16.234;2023-02-19T06:45:28;98745.38;;;9.84;100.00
51099;BME280;37146;48.210;16.234;2023-02-19T06:47:53;98721.81;;;9.92;100.00
51099;BME280;37146;48.210;16.234;2023-02-19T06:50:18;98738.53;;;9.96;100.00
51099;BME280;37146;48.210;16.234;2023-02-19T06:52:43;98751.09;;;9.94;100.00
51099;BME280;37146;48.210;16.234;2023-02-19T06:55:09;98741.59;;;9.88;100.00
51099;BME280;37146;48.210;16.234;2023-02-19T06:57:34;98738.69;;;9.93;100.00
51099;BME280;37146;48.210;16.234;2023-02-19T06:59:59;98735.06;;;9.94;100.00
51099;BME280;37146;48.210;16.234;2023-02-19T07:02:25;98745.50;;;9.98;100.00
51099;BME280;37146;48.210;16.234;2023-02-19T07:04:50;98743.94;;;9.94;100.00
51099;BME280;37146;48.210;16.234;2023-02-19T07:07:15;98744.13;;;9.91;100.00
51099;BME280;37146;48.210;16.234;2023-02-19T07:09:40;98736.09;;;9.91;100.00
51099;BME280;37146;48.210;16.234;2023-02-19T07:12:05;98744.56;;;9.99;100.00
51099;BME280;37146;48.210;16.234;2023-02-19T07:14:31;98750.50;;;10.04;100.00
51099;BME280;37146;48.210;16.234;2023-02-19T07:16:56;98763.41;;;10.14;99.86
51099;BME280;37146;48.210;16.234;2023-02-19T07:19:21;98774.25;;;10.11;100.00
51099;BME280;37146;48.210;16.234;2023-02-19T07:21:46;98761.03;;;10.08;100.00
51099;BME280;37146;48.210;16.234;2023-02-19T07:24:12;98741.81;;;10.01;100.00
51099;BME280;37146;48.210;16.234;2023-02-19T07:26:37;98739.81;;;10.04;100.00
51099;BME280;37146;48.210;16.234;2023-02-19T07:29:02;98751.72;;;10.15;99.64
51099;BME280;37146;48.210;16.234;2023-02-19T07:31:28;98739.44;;;10.28;99.74
51099;BME280;37146;48.210;16.234;2023-02-19T07:33:53;98748.16;;;10.32;99.21
51099;BME280;37146;48.210;16.234;2023-02-19T07:36:19;98752.31;;;10.38;97.82
51099;BME280;37146;48.210;16.234;2023-02-19T07:38:45;98746.41;;;10.64;96.07
51099;BME280;37146;48.210;16.234;2023-02-19T07:41:10;98733.81;;;10.50;97.08
51099;BME280;37146;48.210;16.234;2023-02-19T07:43:36;98737.94;;;10.56;97.36
51099;BME280;37146;48.210;16.234;2023-02-19T07:46:02;98742.69;;;10.67;96.68
51099;BME280;37146;48.210;16.234;2023-02-19T07:48:28;98718.06;;;10.92;94.85
51099;BME280;37146;48.210;16.234;2023-02-19T07:50:54;98730.19;;;11.89;89.31
51099;BME280;37146;48.210;16.234;2023-02-19T07:53:19;98726.06;;;11.39;90.71
51099;BME280;37146;48.210;16.234;2023-02-19T07:55:45;98731.72;;;11.79;88.57
51099;BME280;37146;48.210;16.234;2023-02-19T07:58:10;98742.28;;;11.21;92.52
51099;BME280;37146;48.210;16.234;2023-02-19T08:00:35;98748.97;;;12.04;87.88
51099;BME280;37146;48.210;16.234;2023-02-19T08:03:00;98738.00;;;12.65;84.44
51099;BME280;37146;48.210;16.234;2023-02-19T08:05:27;98769.16;;;11.04;91.59
51099;BME280;37146;48.210;16.234;2023-02-19T08:07:52;98769.66;;;11.10;92.36
51099;BME280;37146;48.210;16.234;2023-02-19T08:10:18;98767.44;;;10.55;94.76
51099;BME280;37146;48.210;16.234;2023-02-19T08:13:01;98781.41;;;10.44;96.49
51099;BME280;37146;48.210;16.234;2023-02-19T08:15:45;98768.44;;;10.36;97.22
51099;BME280;37146;48.210;16.234;2023-02-19T08:18:11;98788.41;;;10.13;98.32
51099;BME280;37146;48.210;16.234;2023-02-19T08:20:37;98782.00;;;10.15;99.65
51099;BME280;37146;48.210;16.234;2023-02-19T08:23:02;98785.13;;;10.24;99.34
51099;BME280;37146;48.210;16.234;2023-02-19T08:25:27;98786.41;;;10.16;97.97
51099;BME280;37146;48.210;16.234;2023-02-19T08:27:53;98785.56;;;10.65;96.39
51099;BME280;37146;48.210;16.234;2023-02-19T08:30:18;98796.59;;;10.75;95.11
51099;BME280;37146;48.210;16.234;2023-02-19T08:32:43;98791.06;;;10.46;96.54
51099;BME280;37146;48.210;16.234;2023-02-19T08:35:08;98795.50;;;10.63;96.27
51099;BME280;37146;48.210;16.234;2023-02-19T08:37:34;98784.69;;;10.81;92.91
51099;BME280;37146;48.210;16.234;2023-02-19T08:39:59;98801.78;;;10.78;94.42
51099;BME280;37146;48.210;16.234;2023-02-19T08:42:24;98803.25;;;10.68;94.52
51099;BME280;37146;48.210;16.234;2023-02-19T08:44:49;98788.25;;;10.97;93.14
51099;BME280;37146;48.210;16.234;2023-02-19T08:47:14;98790.03;;;11.29;89.76
51099;BME280;37146;48.210;16.234;2023-02-19T08:49:40;98785.41;;;11.31;89.45
51099;BME280;37146;48.210;16.234;2023-02-19T08:52:05;98782.59;;;11.18;89.71
51099;BME280;37146;48.210;16.234;2023-02-19T08:54:30;98794.94;;;13.25;79.29
51099;BME280;37146;48.210;16.234;2023-02-19T08:56:55;98799.94;;;14.62;72.13
51099;BME280;37146;48.210;16.234;2023-02-19T08:59:20;98782.03;;;14.11;71.80
51099;BME280;37146;48.210;16.234;2023-02-19T09:01:46;98793.94;;;12.86;77.59
51099;BME280;37146;48.210;16.234;2023-02-19T09:04:11;98788.25;;;14.24;71.05
51099;BME280;37146;48.210;16.234;2023-02-19T09:06:37;98798.34;;;13.95;72.99
51099;BME280;37146;48.210;16.234;2023-02-19T09:09:02;98799.88;;;13.99;71.98
51099;BME280;37146;48.210;16.234;2023-02-19T09:11:28;98806.09;;;12.77;77.80
51099;BME280;37146;48.210;16.234;2023-02-19T09:13:54;98817.28;;;12.98;78.73
51099;BME280;37146;48.210;16.234;2023-02-19T09:16:19;98822.88;;;13.90;74.34
51099;BME280;37146;48.210;16.234;2023-02-19T09:18:44;98810.94;;;12.57;80.24
51099;BME280;37146;48.210;16.234;2023-02-19T09:21:10;98811.41;;;12.78;79.74
51099;BME280;37146;48.210;16.234;2023-02-19T09:23:35;98819.03;;;13.26;79.84
51099;BME280;37146;48.210;16.234;2023-02-19T09:26:01;98807.50;;;15.55;68.65
51099;BME280;37146;48.210;16.234;2023-02-19T09:28:28;98794.59;;;14.23;72.78
51099;BME280;37146;48.210;16.234;2023-02-19T09:30:53;98793.88;;;14.34;71.25
51099;BME280;37146;48.210;16.234;2023-02-19T09:33:18;98789.75;;;14.54;72.05
51099;BME280;37146;48.210;16.234;2023-02-19T09:35:44;98789.63;;;14.81;69.11
51099;BME280;37146;48.210;16.234;2023-02-19T09:38:09;98786.22;;;17.24;61.30
51099;BME280;37146;48.210;16.234;2023-02-19T09:40:35;98777.03;;;17.15;60.88
51099;BME280;37146;48.210;16.234;2023-02-19T09:43:04;98773.31;;;17.28;60.03
51099;BME280;37146;48.210;16.234;2023-02-19T09:45:30;98786.28;;;16.79;61.35
51099;BME280;37146;48.210;16.234;2023-02-19T09:47:55;98783.69;;;16.89;59.73
51099;BME280;37146;48.210;16.234;2023-02-19T09:50:23;98761.25;;;18.07;56.79
51099;BME280;37146;48.210;16.234;2023-02-19T09:52:52;98772.19;;;18.27;55.74
51099;BME280;37146;48.210;16.234;2023-02-19T09:57:50;98782.09;;;18.37;54.47
51099;BME280;37146;48.210;16.234;2023-02-19T10:00:28;98770.34;;;18.58;53.57
51099;BME280;37146;48.210;16.234;2023-02-19T10:03:05;98768.88;;;18.54;52.57
51099;BME280;37146;48.210;16.234;2023-02-19T10:05:31;98770.25;;;17.54;55.85
51099;BME280;37146;48.210;16.234;2023-02-19T10:07:56;98764.97;;;18.37;52.79
51099;BME280;37146;48.210;16.234;2023-02-19T10:10:27;98768.63;;;18.57;51.67
51099;BME280;37146;48.210;16.234;2023-02-19T10:12:54;98773.00;;;19.40;49.46
51099;BME280;37146;48.210;16.234;2023-02-19T10:15:37;98764.66;;;20.10;47.18
51099;BME280;37146;48.210;16.234;2023-02-19T10:18:03;98781.53;;;19.65;47.79
51099;BME280;37146;48.210;16.234;2023-02-19T10:20:29;98771.34;;;19.08;48.03
51099;BME280;37146;48.210;16.234;2023-02-19T10:23:04;98782.13;;;18.88;48.63
51099;BME280;37146;48.210;16.234;2023-02-19T10:25:30;98778.09;;;18.82;49.24
51099;BME280;37146;48.210;16.234;2023-02-19T10:27:57;98797.88;;;19.04;48.34
51099;BME280;37146;48.210;16.234;2023-02-19T10:30:24;98773.56;;;18.93;47.96
51099;BME280;37146;48.210;16.234;2023-02-19T10:33:03;98787.72;;;18.03;49.51
51099;BME280;37146;48.210;16.234;2023-02-19T10:38:17;98790.47;;;17.92;50.32
51099;BME280;37146;48.210;16.234;2023-02-19T10:40:43;98800.03;;;17.75;49.98
51099;BME280;37146;48.210;16.234;2023-02-19T10:43:14;98797.28;;;17.21;52.33
51099;BME280;37146;48.210;16.234;2023-02-19T10:45:46;98799.91;;;17.44;51.98
51099;BME280;37146;48.210;16.234;2023-02-19T10:48:22;98808.25;;;16.85;51.90
51099;BME280;37146;48.210;16.234;2023-02-19T10:50:52;98790.28;;;18.05;50.57
51099;BME280;37146;48.210;16.234;2023-02-19T10:53:22;98795.47;;;18.39;49.73
51099;BME280;37146;48.210;16.234;2023-02-19T10:55:47;98793.28;;;16.47;52.93
51099;BME280;37146;48.210;16.234;2023-02-19T10:58:20;98809.22;;;17.19;51.30
51099;BME280;37146;48.210;16.234;2023-02-19T11:00:46;98805.81;;;16.48;52.91
51099;BME280;37146;48.210;16.234;2023-02-19T11:03:13;98800.38;;;16.26;53.61
51099;BME280;37146;48.210;16.234;2023-02-19T11:05:39;98808.63;;;15.53;55.53
51099;BME280;37146;48.210;16.234;2023-02-19T11:08:20;98803.84;;;15.56;56.67
51099;BME280;37146;48.210;16.234;2023-02-19T11:10:46;98797.19;;;15.00;58.09
51099;BME280;37146;48.210;16.234;2023-02-19T11:13:13;98800.94;;;14.48;59.10
51099;BME280;37146;48.210;16.234;2023-02-19T11:15:39;98798.34;;;13.82;61.83
51099;BME280;37146;48.210;16.234;2023-02-19T11:20:38;98794.66;;;14.86;60.15
51099;BME280;37146;48.210;16.234;2023-02-19T11:23:18;98803.69;;;15.46;57.64
51099;BME280;37146;48.210;16.234;2023-02-19T11:25:46;98810.06;;;15.45;58.33
51099;BME280;37146;48.210;16.234;2023-02-19T11:30:41;98804.38;;;14.50;59.09
51099;BME280;37146;48.210;16.234;2023-02-19T11:35:41;98819.25;;;14.43;60.20
51099;BME280;37146;48.210;16.234;2023-02-19T11:38:07;98812.53;;;13.71;62.20
51099;BME280;37146;48.210;16.234;2023-02-19T11:40:36;98813.13;;;13.61;63.79
51099;BME280;37146;48.210;16.234;2023-02-19T11:45:42;98805.50;;;13.28;64.48
51099;BME280;37146;48.210;16.234;2023-02-19T11:53:28;98815.03;;;12.77;67.41
51099;BME280;37146;48.210;16.234;2023-02-19T11:58:37;98821.16;;;12.36;68.52
51099;BME280;37146;48.210;16.234;2023-02-19T12:01:20;98828.44;;;12.19;74.91
51099;BME280;37146;48.210;16.234;2023-02-19T12:06:16;98821.78;;;11.35;85.21
51099;BME280;37146;48.210;16.234;2023-02-19T12:08:49;98817.84;;;11.10;93.97
51099;BME280;37146;48.210;16.234;2023-02-19T12:16:53;98826.75;;;11.11;90.13
51099;BME280;37146;48.210;16.234;2023-02-19T12:26:58;98826.25;;;11.51;79.43
51099;BME280;37146;48.210;16.234;2023-02-19T12:34:57;98841.69;;;11.62;78.81
51099;BME280;37146;48.210;16.234;2023-02-19T12:44:53;98827.19;;;11.80;75.35
51099;BME280;37146;48.210;16.234;2023-02-19T12:47:21;98829.34;;;11.89;75.67
51099;BME280;37146;48.210;16.234;2023-02-19T12:50:20;98828.94;;;11.96;74.27
51099;BME280;37146;48.210;16.234;2023-02-19T12:52:39;98830.94;;;12.08;73.78
51099;BME280;37146;48.210;16.234;2023-02-19T12:57:42;98832.66;;;12.09;72.36
51099;BME280;37146;48.210;16.234;2023-02-19T13:05:18;98826.69;;;12.04;71.72
51099;BME280;37146;48.210;16.234;2023-02-19T13:07:51;98818.09;;;11.99;71.88
51099;BME280;37146;48.210;16.234;2023-02-19T13:10:24;98813.50;;;12.01;71.45
51099;BME280;37146;48.210;16.234;2023-02-19T13:12:50;98824.16;;;12.17;70.71
51099;BME280;37146;48.210;16.234;2023-02-19T13:15:28;98823.59;;;11.96;68.93
51099;BME280;37146;48.210;16.234;2023-02-19T13:17:56;98839.00;;;12.23;68.57
51099;BME280;37146;48.210;16.234;2023-02-19T13:20:25;98825.19;;;12.29;67.89
51099;BME280;37146;48.210;16.234;2023-02-19T13:28:35;98833.53;;;11.94;68.82
51099;BME280;37146;48.210;16.234;2023-02-19T13:36:26;98823.94;;;11.75;68.03
51099;BME280;37146;48.210;16.234;2023-02-19T13:38:52;98815.63;;;11.80;68.90
51099;BME280;37146;48.210;16.234;2023-02-19T13:41:25;98818.78;;;11.56;70.06
51099;BME280;37146;48.210;16.234;2023-02-19T13:43:55;98833.78;;;11.44;71.60
51099;BME280;37146;48.210;16.234;2023-02-19T13:46:21;98829.88;;;11.50;71.95
51099;BME280;37146;48.210;16.234;2023-02-19T13:48:46;98834.91;;;11.40;73.23
51099;BME280;37146;48.210;16.234;2023-02-19T13:58:57;98840.03;;;11.12;74.15
51099;BME280;37146;48.210;16.234;2023-02-19T14:04:22;98842.13;;;11.07;74.44
51099;BME280;37146;48.210;16.234;2023-02-19T14:14:37;98868.59;;;10.80;74.51
51099;BME280;37146;48.210;16.234;2023-02-19T14:24:49;98883.38;;;10.54;79.59
51099;BME280;37146;48.210;16.234;2023-02-19T14:27:16;98895.16;;;10.32;83.48
51099;BME280;37146;48.210;16.234;2023-02-19T14:29:41;98907.03;;;10.26;83.30
51099;BME280;37146;48.210;16.234;2023-02-19T14:32:09;98898.63;;;10.34;82.78
51099;BME280;37146;48.210;16.234;2023-02-19T14:34:36;98905.97;;;10.30;83.59
51099;BME280;37146;48.210;16.234;2023-02-19T14:37:01;98904.31;;;10.10;86.17
51099;BME280;37146;48.210;16.234;2023-02-19T14:39:31;98916.81;;;9.92;87.26
51099;BME280;37146;48.210;16.234;2023-02-19T14:41:58;98918.19;;;9.82;90.69
51099;BME280;37146;48.210;16.234;2023-02-19T14:44:29;98935.34;;;9.95;90.20
51099;BME280;37146;48.210;16.234;2023-02-19T14:47:04;98935.53;;;9.92;90.12
51099;BME280;37146;48.210;16.234;2023-02-19T14:49:38;98929.94;;;9.60;97.98
51099;BME280;37146;48.210;16.234;2023-02-19T14:52:07;98932.84;;;9.55;99.94
51099;BME280;37146;48.210;16.234;2023-02-19T14:54:38;98936.66;;;9.32;100.00